Terminal Aerodrome Forecast
Issued by NWS

Home | Current Version | Previous Version | Text Only | Print | Product List | Glossary On
Versions: 1 2 3 4 5 6 7 8 9 10 11 12 13 14 15 16 17 18 19 20 21 22 23 24
000
FTUS43 KGRB 191317 AAA
TAFATW
TAF AMD
KATW 191317Z 1913/2012 28006KT 4SM BR BKN004
      TEMPO 1913/1914 P6SM NSW SCT004 BKN008
     FM191400 27007KT P6SM SCT012 SCT120
      TEMPO 1914/1915 4SM BR BKN010
     FM191600 27008KT P6SM FEW050 SCT120
     FM200200 23004KT P6SM FEW120
     FM200900 23004KT 3SM BR SKC=

USA.gov is the U.S. government's official web portal to all federal, state and local government web resources and services.